Primavera do Leste, Brazil
Current Conditions -  °F | °C
As of 4:00 PM on Saturday 25 Oct 2014 (Local Time) from SBCY Reporting Station
Scattered Clouds Scattered Clouds  
Wind Chill: 84°   Ceiling: Unl
Heat Index: 88°   Visibility: 6mi
Dew Point: 70°   Wind: 7mph
Humidity: 62%   Direction: 340°NNW
Pressure: 29.8"   Gusts: NA
Location:  15.55°S, 54.28°W
Report Text: SBCY 251900Z 34006KT 9999 SCT020 29/21 Q1009
Loading
Personal Weather Stations






























Interactive Weather Map
Tropical Storm Tracking
New forecast layout! Learn more

10-Day Weather Forecast

Advertisements
Track Severe Weather on mobile